createdAt,value
2018-06-24T00:00:18.032Z,30.7
2018-06-24T00:01:07.859Z,30.7
2018-06-24T00:01:57.859Z,30.7
2018-06-24T00:02:47.680Z,30.7
2018-06-24T00:03:38.289Z,30.7
2018-06-24T00:04:28.331Z,30.7
2018-06-24T00:05:17.836Z,30.7
2018-06-24T00:06:08.469Z,30.7
2018-06-24T00:06:58.543Z,30.7
2018-06-24T00:07:48.101Z,30.7
2018-06-24T00:08:38.632Z,30.7
2018-06-24T00:09:28.150Z,30.7
2018-06-24T00:10:18.476Z,30.7
2018-06-24T00:11:08.842Z,30.7
2018-06-24T00:11:58.333Z,30.7
2018-06-24T00:12:48.950Z,30.7
2018-06-24T00:13:39.026Z,30.7
2018-06-24T00:14:28.845Z,30.8
2018-06-24T00:15:18.878Z,30.7
2018-06-24T00:16:08.656Z,30.8
2018-06-24T00:16:58.709Z,30.8
2018-06-24T00:17:49.053Z,30.8
2018-06-24T00:18:38.848Z,30.8
2018-06-24T00:19:28.629Z,30.8
2018-06-24T00:20:19.266Z,30.8
2018-06-24T00:21:09.589Z,30.8
2018-06-24T00:21:59.360Z,30.8
2018-06-24T00:22:48.860Z,30.8
2018-06-24T00:23:39.823Z,30.8
2018-06-24T00:24:29.828Z,30.8
2018-06-24T00:25:19.700Z,30.8
2018-06-24T00:27:00.032Z,30.8
2018-06-24T00:27:49.786Z,30.8
2018-06-24T00:28:39.618Z,30.8
2018-06-24T00:29:30.292Z,30.8
2018-06-24T00:30:20.289Z,30.8
2018-06-24T00:31:09.889Z,30.8
2018-06-24T00:31:59.412Z,30.8
2018-06-24T00:32:49.435Z,30.8
2018-06-24T00:33:39.777Z,30.8
2018-06-24T00:34:30.090Z,30.8
2018-06-24T00:35:19.886Z,30.8
2018-06-24T00:36:10.528Z,30.8
2018-06-24T00:37:00.512Z,30.8
2018-06-24T00:37:50.597Z,30.8
2018-06-24T00:38:40.613Z,30.8
2018-06-24T00:39:30.695Z,30.8
2018-06-24T00:40:20.783Z,30.8
2018-06-24T00:41:11.095Z,30.8
2018-06-24T00:42:00.870Z,30.8
2018-06-24T00:42:51.207Z,30.8
2018-06-24T00:43:41.022Z,30.8
2018-06-24T00:44:31.345Z,30.8
2018-06-24T00:45:21.119Z,30.8
2018-06-24T00:46:11.520Z,30.8
2018-06-24T00:47:01.541Z,30.8
2018-06-24T00:47:51.616Z,30.9
2018-06-24T00:48:41.631Z,30.9
2018-06-24T00:49:31.726Z,30.9
2018-06-24T00:50:21.234Z,30.9
2018-06-24T00:51:11.547Z,30.9
2018-06-24T00:52:01.627Z,30.9
2018-06-24T00:52:51.971Z,30.9
2018-06-24T00:53:42.054Z,30.9
2018-06-24T00:54:31.258Z,30.9
2018-06-24T00:55:21.846Z,30.9
2018-06-24T00:56:11.943Z,30.9
2018-06-24T00:57:02.271Z,30.9
2018-06-24T00:57:52.103Z,30.9
2018-06-24T00:58:42.131Z,30.9
2018-06-24T00:59:32.160Z,30.9
2018-06-24T01:00:22.264Z,30.9
2018-06-24T01:01:12.589Z,30.9
2018-06-24T01:02:02.381Z,30.9
2018-06-24T01:02:52.155Z,30.9
2018-06-24T01:03:42.299Z,30.9
2018-06-24T01:04:32.061Z,30.9
2018-06-24T01:05:22.421Z,30.9
2018-06-24T01:06:12.238Z,30.9
2018-06-24T01:07:02.499Z,30.9
2018-06-24T01:07:53.113Z,30.9
2018-06-24T01:08:42.867Z,30.9
2018-06-24T01:09:32.668Z,30.9
2018-06-24T01:10:22.733Z,30.9
2018-06-24T01:11:12.837Z,30.9
2018-06-24T01:12:02.298Z,30.9
2018-06-24T01:12:53.216Z,30.9
2018-06-24T01:13:42.972Z,30.9
2018-06-24T01:14:33.310Z,30.9
2018-06-24T01:15:23.395Z,30.9
2018-06-24T01:16:13.164Z,30.9
2018-06-24T01:17:03.246Z,30.9
2018-06-24T01:17:53.859Z,30.9
2018-06-24T01:18:43.885Z,30.9
2018-06-24T01:19:34.023Z,30.9
2018-06-24T01:20:23.792Z,30.9
2018-06-24T01:21:13.821Z,30.9
2018-06-24T01:22:03.919Z,30.9
2018-06-24T01:22:53.941Z,30.9
2018-06-24T01:23:44.262Z,30.9
2018-06-24T01:24:34.346Z,30.9
2018-06-24T01:25:24.387Z,30.9
2018-06-24T01:26:13.891Z,30.9
2018-06-24T01:27:04.216Z,30.9
2018-06-24T01:27:54.346Z,30.9
2018-06-24T01:28:43.828Z,30.9
2018-06-24T01:29:34.460Z,30.9
2018-06-24T01:30:23.897Z,30.9
2018-06-24T01:31:14.032Z,31
2018-06-24T01:32:04.356Z,30.9
2018-06-24T01:32:54.721Z,31
2018-06-24T01:33:45.022Z,31
2018-06-24T01:34:35.084Z,31
2018-06-24T01:35:24.336Z,31
2018-06-24T01:36:15.223Z,31
2018-06-24T01:37:04.792Z,31
2018-06-24T01:37:55.075Z,31
2018-06-24T01:38:45.395Z,31
2018-06-24T01:39:34.919Z,31
2018-06-24T01:40:25.566Z,31
2018-06-24T01:41:15.637Z,31
2018-06-24T01:42:05.361Z,31
2018-06-24T01:42:55.681Z,31
2018-06-24T01:43:45.775Z,31
2018-06-24T01:44:35.584Z,31
2018-06-24T01:45:25.614Z,31
2018-06-24T01:46:15.969Z,31
2018-06-24T01:47:06.049Z,31
2018-06-24T01:47:56.073Z,31
2018-06-24T01:48:46.150Z,31
2018-06-24T01:49:35.720Z,31
2018-06-24T01:50:26.256Z,31
2018-06-24T01:51:16.072Z,31
2018-06-24T01:52:05.848Z,31.1
2018-06-24T01:52:55.335Z,31
2018-06-24T01:53:45.438Z,31
2018-06-24T01:54:35.788Z,31.1
2018-06-24T01:55:26.123Z,31.1
2018-06-24T01:56:16.708Z,31
2018-06-24T01:57:06.226Z,31
2018-06-24T01:57:56.284Z,31.1
2018-06-24T01:58:46.603Z,31.1
2018-06-24T01:59:36.701Z,31.1
2018-06-24T02:00:26.252Z,31.1
2018-06-24T02:01:16.787Z,31.1
2018-06-24T02:02:06.560Z,31.1
2018-06-24T02:02:57.244Z,31.1
2018-06-24T02:03:46.714Z,31.1
2018-06-24T02:04:36.801Z,31.1
2018-06-24T02:05:26.547Z,31.1
2018-06-24T02:06:17.188Z,31.1
2018-06-24T02:07:07.544Z,31.1
2018-06-24T02:07:56.448Z,31.1
2018-06-24T02:08:47.654Z,31.1
2018-06-24T02:09:37.123Z,31.1
2018-06-24T02:10:27.212Z,31.1
2018-06-24T02:11:17.547Z,31.1
2018-06-24T02:12:07.352Z,31.1
2018-06-24T02:12:57.744Z,31.1
2018-06-24T02:13:48.035Z,31.1
2018-06-24T02:14:38.113Z,31.1
2018-06-24T02:15:28.139Z,31.1
2018-06-24T02:16:18.234Z,31.1
2018-06-24T02:17:08.263Z,31.1
2018-06-24T02:17:58.303Z,31.1
2018-06-24T02:18:48.099Z,31.1
2018-06-24T02:19:38.189Z,31.1
2018-06-24T02:20:28.493Z,31.1
2018-06-24T02:21:18.313Z,31.1
2018-06-24T02:22:08.658Z,31.1
2018-06-24T02:22:58.141Z,31.1
2018-06-24T02:23:48.760Z,31.1
2018-06-24T02:24:38.554Z,31.1
2018-06-24T02:25:28.422Z,31.1
2018-06-24T02:26:18.962Z,31.1
2018-06-24T02:27:08.462Z,31.1
2018-06-24T02:27:59.078Z,31.1
2018-06-24T02:28:49.132Z,31.1
2018-06-24T02:29:38.935Z,31.1
2018-06-24T02:30:29.012Z,31.1
2018-06-24T02:31:19.052Z,31.1
2018-06-24T02:32:08.578Z,31.1
2018-06-24T02:32:58.891Z,31.1
2018-06-24T02:33:49.245Z,31.1
2018-06-24T02:34:38.752Z,31.1
2018-06-24T02:35:29.398Z,31.1
2018-06-24T02:36:19.153Z,31.1
2018-06-24T02:37:09.733Z,31.1
2018-06-24T02:37:58.979Z,31.1
2018-06-24T02:39:39.675Z,31.1
2018-06-24T02:40:29.987Z,31.1
2018-06-24T02:41:19.237Z,31.1
2018-06-24T02:42:10.142Z,31.1
2018-06-24T02:43:00.185Z,31.1
2018-06-24T02:43:49.996Z,31.1
2018-06-24T02:44:40.309Z,31.1
2018-06-24T02:45:30.114Z,31.1
2018-06-24T02:46:20.468Z,31.1
2018-06-24T02:47:10.223Z,31.1
2018-06-24T02:48:00.049Z,31.1
2018-06-24T02:48:50.654Z,31.1
2018-06-24T02:49:40.735Z,31.1
2018-06-24T02:50:30.854Z,31.1
2018-06-24T02:51:19.988Z,31.1
2018-06-24T02:52:10.598Z,31.1
2018-06-24T02:53:00.412Z,31.1
2018-06-24T02:53:51.129Z,31.1
2018-06-24T02:54:40.545Z,31.1
2018-06-24T02:55:30.947Z,31.2
2018-06-24T02:56:21.226Z,31.1
2018-06-24T02:57:11.270Z,31.1
2018-06-24T02:58:01.028Z,31.1
2018-06-24T02:58:51.384Z,31.1
2018-06-24T02:59:40.927Z,31.2
2018-06-24T03:00:31.231Z,31.2
2018-06-24T03:01:20.724Z,31.2
2018-06-24T03:02:11.650Z,31.1
2018-06-24T03:03:00.882Z,31.2
2018-06-24T03:03:51.488Z,31.1
2018-06-24T03:04:41.532Z,31.2
2018-06-24T03:05:31.350Z,31.2
2018-06-24T03:06:21.183Z,31.1
2018-06-24T03:07:11.743Z,31.2
2018-06-24T03:08:02.128Z,31.1
2018-06-24T03:08:51.283Z,31.2
2018-06-24T03:09:41.940Z,31.2
2018-06-24T03:10:32.085Z,31.2
2018-06-24T03:11:22.333Z,31.1
2018-06-24T03:12:11.851Z,31.2
2018-06-24T03:13:02.484Z,31.2
2018-06-24T03:13:52.223Z,31.2
2018-06-24T03:14:42.068Z,31.2
2018-06-24T03:15:32.663Z,31.2
2018-06-24T03:16:22.136Z,31.2
2018-06-24T03:17:12.494Z,31.2
2018-06-24T03:18:02.548Z,31.2
2018-06-24T03:18:52.813Z,31.2
2018-06-24T03:19:42.970Z,31.2
2018-06-24T03:20:32.723Z,31.2
2018-06-24T03:21:22.555Z,31.2
2018-06-24T03:22:13.103Z,31.2
2018-06-24T03:23:02.689Z,31.2
2018-06-24T03:23:52.121Z,31.2
2018-06-24T03:24:42.488Z,31.2
2018-06-24T03:25:33.545Z,31.2
2018-06-24T03:26:22.870Z,31.2
2018-06-24T03:27:13.471Z,31.2
2018-06-24T03:28:03.557Z,31.2
2018-06-24T03:28:53.578Z,31.2
2018-06-24T03:29:43.096Z,31.2
2018-06-24T03:30:33.865Z,31.2
2018-06-24T03:31:23.257Z,31.2
2018-06-24T03:32:13.340Z,31.2
2018-06-24T03:33:03.969Z,31.2
2018-06-24T03:33:53.960Z,31.2
2018-06-24T03:34:44.025Z,31.2
2018-06-24T03:35:34.098Z,31.2
2018-06-24T03:36:24.183Z,31.2
2018-06-24T03:37:13.940Z,31.2
2018-06-24T03:38:04.293Z,31.2
2018-06-24T03:38:54.350Z,31.2
2018-06-24T03:39:44.390Z,31.2
2018-06-24T03:40:34.475Z,31.2
2018-06-24T03:41:24.565Z,31.3
2018-06-24T03:42:14.598Z,31.3
2018-06-24T03:43:04.670Z,31.2
2018-06-24T03:43:54.728Z,31.2
2018-06-24T03:44:44.494Z,31.3
2018-06-24T03:45:34.827Z,31.2
2018-06-24T03:46:24.362Z,31.2
2018-06-24T03:47:14.449Z,31.2
2018-06-24T03:48:05.051Z,31.3
2018-06-24T03:48:55.148Z,31.2
2018-06-24T03:49:44.921Z,31.3
2018-06-24T03:50:35.256Z,31.3
2018-06-24T03:51:24.740Z,31.3
2018-06-24T03:52:15.085Z,31.3
2018-06-24T03:53:05.454Z,31.2
2018-06-24T03:53:55.243Z,31.2
2018-06-24T03:54:45.282Z,31.3
2018-06-24T03:55:35.067Z,31.3
2018-06-24T03:56:25.135Z,31.3
2018-06-24T03:57:15.462Z,31.2
2018-06-24T03:58:05.876Z,31.3
2018-06-24T03:58:55.031Z,31.2
2018-06-24T03:59:45.904Z,31.3
2018-06-24T04:00:35.410Z,31.3
2018-06-24T04:01:25.756Z,31.3
2018-06-24T04:02:14.972Z,31.3
2018-06-24T04:03:05.885Z,31.3
2018-06-24T04:03:56.242Z,31.3
2018-06-24T04:04:46.514Z,31.3
2018-06-24T04:05:35.814Z,31.3
2018-06-24T04:06:25.903Z,31.3
2018-06-24T04:07:16.500Z,31.3
2018-06-24T04:08:06.601Z,31.3
2018-06-24T04:08:56.349Z,31.3
2018-06-24T04:09:46.677Z,31.3
2018-06-24T04:10:36.742Z,31.3
2018-06-24T04:11:26.825Z,31.3
2018-06-24T04:12:16.280Z,31.3
2018-06-24T04:13:06.079Z,31.3
2018-06-24T04:13:56.963Z,31.3
2018-06-24T04:14:46.769Z,31.3
2018-06-24T04:15:36.569Z,31.3
2018-06-24T04:16:26.641Z,31.3
2018-06-24T04:17:16.655Z,31.3
2018-06-24T04:18:07.042Z,31.3
2018-06-24T04:18:57.321Z,31.3
2018-06-24T04:19:47.159Z,31.3
2018-06-24T04:20:37.200Z,31.3
2018-06-24T04:21:27.518Z,31.3
2018-06-24T04:22:17.403Z,31.3
2018-06-24T04:23:07.110Z,31.3
2018-06-24T04:23:57.412Z,31.3
2018-06-24T04:24:47.228Z,31.3
2018-06-24T04:25:38.067Z,31.3
2018-06-24T04:26:27.888Z,31.3
2018-06-24T04:27:17.960Z,31.3
2018-06-24T04:28:08.045Z,31.3
2018-06-24T04:28:58.104Z,31.3
2018-06-24T04:29:48.139Z,31.3
2018-06-24T04:30:38.243Z,31.3
2018-06-24T04:31:27.995Z,31.3
2018-06-24T04:32:18.401Z,31.3
2018-06-24T04:33:07.877Z,31.3
2018-06-24T04:33:58.170Z,31.3
2018-06-24T04:34:48.004Z,31.3
2018-06-24T04:35:38.659Z,31.3
2018-06-24T04:36:28.360Z,31.3
2018-06-24T04:37:17.606Z,31.3
2018-06-24T04:38:08.764Z,31.3
2018-06-24T04:38:58.909Z,31.3
2018-06-24T04:39:48.955Z,31.3
2018-06-24T04:40:38.703Z,31.3
2018-06-24T04:41:28.765Z,31.3
2018-06-24T04:42:18.277Z,31.3
2018-06-24T04:43:08.324Z,31.3
2018-06-24T04:43:58.924Z,31.3
2018-06-24T04:44:49.276Z,31.3
2018-06-24T04:45:39.337Z,31.3
2018-06-24T04:46:29.411Z,31.3
2018-06-24T04:47:19.472Z,31.3
2018-06-24T04:48:09.316Z,31.3
2018-06-24T04:48:59.607Z,31.3
2018-06-24T04:49:49.675Z,31.3
2018-06-24T04:50:39.718Z,31.3
2018-06-24T04:51:29.222Z,31.3
2018-06-24T04:52:19.556Z,31.3
2018-06-24T04:53:09.899Z,31.3
2018-06-24T04:53:59.665Z,31.3
2018-06-24T04:54:49.186Z,31.3
2018-06-24T04:55:40.101Z,31.3
2018-06-24T04:56:30.164Z,31.3
2018-06-24T04:57:20.241Z,31.3
2018-06-24T04:58:09.991Z,31.3
2018-06-24T04:59:00.322Z,31.3
2018-06-24T04:59:49.852Z,31.3
2018-06-24T05:00:40.470Z,31.3
2018-06-24T05:01:30.273Z,31.3
2018-06-24T05:02:19.469Z,31.3
2018-06-24T05:03:10.367Z,31.3
2018-06-24T05:04:00.159Z,31.3
2018-06-24T05:04:50.800Z,31.3
2018-06-24T05:05:40.898Z,31.3
2018-06-24T05:06:31.165Z,31.3
2018-06-24T05:07:20.959Z,31.3
2018-06-24T05:08:10.753Z,31.3
2018-06-24T05:09:00.531Z,31.3
2018-06-24T05:09:50.607Z,31.3
2018-06-24T05:10:41.231Z,31.3
2018-06-24T05:11:31.009Z,31.3
2018-06-24T05:12:21.329Z,31.3
2018-06-24T05:13:11.394Z,31.3
2018-06-24T05:14:00.433Z,31.3
2018-06-24T05:14:51.581Z,31.3
2018-06-24T05:15:41.614Z,31.3
2018-06-24T05:16:31.373Z,31.3
2018-06-24T05:17:21.166Z,31.3
2018-06-24T05:18:11.214Z,31.3
2018-06-24T05:19:01.297Z,31.3
2018-06-24T05:19:51.321Z,31.3
2018-06-24T05:20:41.996Z,31.3
2018-06-24T05:21:32.075Z,31.3
2018-06-24T05:22:21.547Z,31.3
2018-06-24T05:23:11.604Z,31.3
2018-06-24T05:24:02.207Z,31.3
2018-06-24T05:24:52.269Z,31.3
2018-06-24T05:25:42.314Z,31.3
2018-06-24T05:26:32.181Z,31.3
2018-06-24T05:27:21.898Z,31.3
2018-06-24T05:28:12.267Z,31.3
2018-06-24T05:29:02.317Z,31.3
2018-06-24T05:29:52.387Z,31.3
2018-06-24T05:30:42.447Z,31.3
2018-06-24T05:31:32.245Z,31.3
2018-06-24T05:32:22.554Z,31.3
2018-06-24T05:33:12.908Z,31.3
2018-06-24T05:34:02.966Z,31.3
2018-06-24T05:34:52.484Z,31.3
2018-06-24T05:35:43.067Z,31.3
2018-06-24T05:36:33.138Z,31.3
2018-06-24T05:37:22.675Z,31.3
2018-06-24T05:38:13.287Z,31.3
2018-06-24T05:39:03.345Z,31.3
2018-06-24T05:39:52.950Z,31.3
2018-06-24T05:40:43.459Z,31.3
2018-06-24T05:41:33.230Z,31.3
2018-06-24T05:42:23.612Z,31.3
2018-06-24T05:43:13.974Z,31.3
2018-06-24T05:44:03.426Z,31.3
2018-06-24T05:44:53.263Z,31.3
2018-06-24T05:45:43.872Z,31.3
2018-06-24T05:46:33.663Z,31.3
2018-06-24T05:47:23.967Z,31.3
2018-06-24T05:48:14.038Z,31.3
2018-06-24T05:49:04.105Z,31.3
2018-06-24T05:49:53.611Z,31.3
2018-06-24T05:50:44.253Z,31.3
2018-06-24T05:51:34.000Z,31.3
2018-06-24T05:52:23.501Z,31.3
2018-06-24T05:53:13.864Z,31.3
2018-06-24T05:54:04.203Z,31.3
2018-06-24T05:54:54.240Z,31.3
2018-06-24T05:55:44.305Z,31.3
2018-06-24T05:56:34.630Z,31.3
2018-06-24T05:57:24.705Z,31.3
2018-06-24T05:58:14.511Z,31.3
2018-06-24T05:59:04.826Z,31.3
2018-06-24T05:59:54.613Z,31.3
2018-06-24T06:00:44.949Z,31.3
2018-06-24T06:01:34.995Z,31.3
2018-06-24T06:02:25.099Z,31.3
2018-06-24T06:03:14.917Z,31.3
2018-06-24T06:04:05.253Z,31.3
2018-06-24T06:04:55.270Z,31.3
2018-06-24T06:05:45.088Z,31.3
2018-06-24T06:06:35.436Z,31.3
2018-06-24T06:07:25.205Z,31.3
2018-06-24T06:08:15.521Z,31.3
2018-06-24T06:09:05.626Z,31.3
2018-06-24T06:09:55.103Z,31.3
2018-06-24T06:10:45.535Z,31.3
2018-06-24T06:11:35.809Z,31.3
2018-06-24T06:12:25.579Z,31.3
2018-06-24T06:13:15.950Z,31.3
2018-06-24T06:14:05.725Z,31.3
2018-06-24T06:14:56.134Z,31.3
2018-06-24T06:15:45.830Z,31.3
2018-06-24T06:16:35.884Z,31.3
2018-06-24T06:17:26.203Z,31.3
2018-06-24T06:18:16.269Z,31.3
2018-06-24T06:19:06.045Z,31.3
2018-06-24T06:19:56.394Z,31.3
2018-06-24T06:20:46.211Z,31.3
2018-06-24T06:21:36.533Z,31.3
2018-06-24T06:22:26.595Z,31.3
2018-06-24T06:23:16.354Z,31.3
2018-06-24T06:24:06.801Z,31.3
2018-06-24T06:24:56.263Z,31.3
2018-06-24T06:25:46.838Z,31.3
2018-06-24T06:26:36.909Z,31.3
2018-06-24T06:27:26.691Z,31.3
2018-06-24T06:28:16.725Z,31.3
2018-06-24T06:29:06.838Z,31.3
2018-06-24T06:29:56.687Z,31.3
2018-06-24T06:30:46.938Z,31.3
2018-06-24T06:31:37.294Z,31.3
2018-06-24T06:32:27.071Z,31.3
2018-06-24T06:33:16.888Z,31.3
2018-06-24T06:34:06.640Z,31.3
2018-06-24T06:34:56.977Z,31.3
2018-06-24T06:35:47.306Z,31.3
2018-06-24T06:36:37.410Z,31.3
2018-06-24T06:37:27.457Z,31.3
2018-06-24T06:38:17.778Z,31.3
2018-06-24T06:39:06.796Z,31.3
2018-06-24T06:39:57.931Z,31.3
2018-06-24T06:40:48.009Z,31.3
2018-06-24T06:41:37.752Z,31.3
2018-06-24T06:42:27.542Z,31.3
2018-06-24T06:43:17.860Z,31.3
2018-06-24T06:44:07.949Z,31.3
2018-06-24T06:44:59.295Z,31.3
2018-06-24T06:45:50.560Z,31.3
2018-06-24T06:46:37.843Z,31.3
2018-06-24T06:47:28.218Z,31.3
2018-06-24T06:48:18.563Z,31.3
2018-06-24T06:49:08.603Z,31.3
2018-06-24T06:49:57.813Z,31.3
2018-06-24T06:50:48.760Z,31.3
2018-06-24T06:51:38.771Z,31.3
2018-06-24T06:52:28.341Z,31.3
2018-06-24T06:53:17.978Z,31.3
2018-06-24T06:54:08.698Z,31.3
2018-06-24T06:54:59.058Z,31.3
2018-06-24T06:55:48.292Z,31.3
2018-06-24T06:56:38.325Z,31.3
2018-06-24T06:57:28.260Z,31.3
2018-06-24T06:58:19.297Z,31.3
2018-06-24T06:59:08.812Z,31.3
2018-06-24T06:59:59.469Z,31.3
2018-06-24T07:00:49.502Z,31.3
2018-06-24T07:01:38.812Z,31.3
2018-06-24T07:02:29.608Z,31.3
2018-06-24T07:03:20.136Z,31.3
2018-06-24T07:04:09.724Z,31.3
2018-06-24T07:04:59.236Z,31.3
2018-06-24T07:05:50.045Z,31.3
2018-06-24T07:06:39.961Z,31.3
2018-06-24T07:07:30.022Z,31.3
2018-06-24T07:08:20.097Z,31.3
2018-06-24T07:09:09.813Z,31.3
2018-06-24T07:10:00.163Z,31.3
2018-06-24T07:10:50.269Z,31.3
2018-06-24T07:11:39.598Z,31.3
2018-06-24T07:12:30.099Z,31.3
2018-06-24T07:13:20.170Z,31.3
2018-06-24T07:14:09.939Z,31.3
2018-06-24T07:15:00.253Z,31.3
2018-06-24T07:15:50.692Z,31.3
2018-06-24T07:16:39.869Z,31.3
2018-06-24T07:17:30.771Z,31.3
2018-06-24T07:18:20.116Z,31.3
2018-06-24T07:19:10.661Z,31.3
2018-06-24T07:20:00.383Z,31.3
2018-06-24T07:20:50.789Z,31.3
2018-06-24T07:21:40.841Z,31.3
2018-06-24T07:22:30.641Z,31.3
2018-06-24T07:23:20.102Z,31.3
2018-06-24T07:24:10.242Z,31.3
2018-06-24T07:25:00.211Z,31.3
2018-06-24T07:25:51.379Z,31.3
2018-06-24T07:26:41.173Z,31.3
2018-06-24T07:27:31.498Z,31.3
2018-06-24T07:28:21.554Z,31.3
2018-06-24T07:29:10.783Z,31.3
2018-06-24T07:30:01.443Z,31.3
2018-06-24T07:30:51.782Z,31.3
2018-06-24T07:31:41.834Z,31.3
2018-06-24T07:32:31.897Z,31.3
2018-06-24T07:33:22.220Z,31.3
2018-06-24T07:34:11.738Z,31.3
2018-06-24T07:35:01.837Z,31.3
2018-06-24T07:35:52.175Z,31.3
2018-06-24T07:36:42.200Z,31.3
2018-06-24T07:37:32.012Z,31.3
2018-06-24T07:38:21.769Z,31.3
2018-06-24T07:39:12.768Z,31.3
2018-06-24T07:40:02.216Z,31.3
2018-06-24T07:40:52.255Z,31.3
2018-06-24T07:41:42.289Z,31.3
2018-06-24T07:42:32.621Z,31.3
2018-06-24T07:43:22.193Z,31.3
2018-06-24T07:44:12.745Z,31.3
2018-06-24T07:45:02.544Z,31.3
2018-06-24T07:45:52.604Z,31.3
2018-06-24T07:46:42.175Z,31.3
2018-06-24T07:47:32.739Z,31.3
2018-06-24T07:48:22.613Z,31.3
2018-06-24T07:49:12.585Z,31.3
2018-06-24T07:50:02.455Z,31.3
2018-06-24T07:50:52.731Z,31.3
2018-06-24T07:51:42.805Z,31.3
2018-06-24T07:52:33.410Z,31.3
2018-06-24T07:53:23.184Z,31.3
2018-06-24T07:54:13.516Z,31.3
2018-06-24T07:55:03.318Z,31.3
2018-06-24T07:55:53.620Z,31.3
2018-06-24T07:56:43.694Z,31.3
2018-06-24T07:57:33.872Z,31.3
2018-06-24T07:58:23.832Z,31.3
2018-06-24T07:59:13.917Z,31.3
2018-06-24T08:00:03.682Z,31.3
2018-06-24T08:00:54.043Z,31.3
2018-06-24T08:01:43.834Z,31.3
2018-06-24T08:02:33.582Z,31.3
2018-06-24T08:03:25.109Z,31.3
2018-06-24T08:04:13.783Z,31.3
2018-06-24T08:05:03.812Z,31.3
2018-06-24T08:05:54.382Z,31.3
2018-06-24T08:06:44.466Z,31.3
2018-06-24T08:07:34.529Z,31.3
2018-06-24T08:08:24.589Z,31.3
2018-06-24T08:09:14.116Z,31.3
2018-06-24T08:10:04.480Z,31.3
2018-06-24T08:10:54.512Z,31.3
2018-06-24T08:11:44.592Z,31.3
2018-06-24T08:12:34.894Z,31.3
2018-06-24T08:13:24.549Z,31.3
2018-06-24T08:14:14.477Z,31.3
2018-06-24T08:15:05.138Z,31.3
2018-06-24T08:15:54.295Z,31.3
2018-06-24T08:16:44.972Z,31.3
2018-06-24T08:17:35.003Z,31.3
2018-06-24T08:18:25.336Z,31.2
2018-06-24T08:19:14.867Z,31.3
2018-06-24T08:20:05.005Z,31.3
2018-06-24T08:20:55.530Z,31.3
2018-06-24T08:21:45.584Z,31.3
2018-06-24T08:22:35.403Z,31.2
2018-06-24T08:23:25.443Z,31.3
2018-06-24T08:24:15.543Z,31.3
2018-06-24T08:25:05.624Z,31.3
2018-06-24T08:25:55.342Z,31.2
2018-06-24T08:26:45.693Z,31.3
2018-06-24T08:27:35.030Z,31.2
2018-06-24T08:28:25.829Z,31.2
2018-06-24T08:29:14.873Z,31.2
2018-06-24T08:30:06.259Z,31.2
2018-06-24T08:30:56.313Z,31.2
2018-06-24T08:31:46.655Z,31.3
2018-06-24T08:32:36.170Z,31.2
2018-06-24T08:33:25.949Z,31.2
2018-06-24T08:34:16.289Z,31.2
2018-06-24T08:35:06.329Z,31.3
2018-06-24T08:35:56.430Z,31.2
2018-06-24T08:36:46.750Z,31.2
2018-06-24T08:37:36.239Z,31.2
2018-06-24T08:38:26.610Z,31.2
2018-06-24T08:39:16.692Z,31.3
2018-06-24T08:40:07.024Z,31.2
2018-06-24T08:40:56.539Z,31.3
2018-06-24T08:41:47.106Z,31.2
2018-06-24T08:42:37.209Z,31.2
2018-06-24T08:43:26.979Z,31.2
2018-06-24T08:44:17.305Z,31.2
2018-06-24T08:45:07.386Z,31.2
2018-06-24T08:45:56.891Z,31.2
2018-06-24T08:46:47.526Z,31.2
2018-06-24T08:47:37.623Z,31.2
2018-06-24T08:48:26.836Z,31.2
2018-06-24T08:49:17.771Z,31.2
2018-06-24T08:50:07.286Z,31.2
2018-06-24T08:50:57.807Z,31.2
2018-06-24T08:51:47.120Z,31.2
2018-06-24T08:52:37.387Z,31.2
2018-06-24T08:53:27.463Z,31.2
2018-06-24T08:54:18.148Z,31.2
2018-06-24T08:55:07.952Z,31.2
2018-06-24T08:55:57.406Z,31.2
2018-06-24T08:56:48.283Z,31.3
2018-06-24T08:57:37.783Z,31.2
2018-06-24T08:58:27.572Z,31.2
2018-06-24T08:59:18.225Z,31.2
2018-06-24T09:00:08.245Z,31.2
2018-06-24T09:00:58.603Z,31.2
2018-06-24T09:01:48.407Z,31.2
2018-06-24T09:02:38.431Z,31.2
2018-06-24T09:03:27.854Z,31.2
2018-06-24T09:04:18.275Z,31.2
2018-06-24T09:05:08.931Z,31.2
2018-06-24T09:05:58.721Z,31.2
2018-06-24T09:06:47.979Z,31.2
2018-06-24T09:07:38.376Z,31.2
2018-06-24T09:08:29.195Z,31
2018-06-24T09:09:19.213Z,29.7
2018-06-24T09:10:09.276Z,27.5
2018-06-24T09:10:59.364Z,26.1
2018-06-24T09:11:49.397Z,25.4
2018-06-24T09:12:39.237Z,25.1
2018-06-24T09:13:28.987Z,24.9
2018-06-24T09:14:19.181Z,24.9
